Callie M. Etheredge — WDI5093 — position and weather

sailwx.info

Track history (hours):
 
Tides and Currents Weather Stations Pressure Air Temp Water Temp Dewpoint Dewpoint Depression Visibility Wind Speed Wind Dir Waves Ship Positions

Callie M. Etheredge

Owner: Genesis Marine, LLC, Houston, TX. More information available from US FCC via Universal Licensing System.

Last reported at 2018-Feb-08 19:30 UTC. Time now 2018-Feb-23 10:43 UTC.
Position N 29°48' W 092°04'.
Warning: this ship's position is 14 days out of date.

Length 24 m; draft 3.3 m.

Type: Ship (hazmat cat B). MMSI: 367705090.

Date/timePositionNaut miles runAvg speedWind from/ knotsBaromVisibWave heightAir tempDewpointWater temp
2018-Feb-08 19:30N 29°48' W 092°04'  
2018-Feb-04 19:29N 29°50' W 092°19'3 5.3
2018-Feb-04 18:59N 29°49' W 092°17'3 6.5
2018-Feb-04 18:29N 29°48' W 092°14'3 5.6
2018-Feb-04 17:59N 29°47' W 092°11'3 6.1
2018-Feb-04 17:29N 29°47' W 092°07'62 3.2
2018-Feb-03 21:56N 29°34' W 090°57'3 6.7
2018-Feb-03 21:29N 29°33' W 090°54'3 7.1
2018-Feb-03 21:00N 29°32' W 090°50'3 7.2
2018-Feb-03 20:31N 29°32' W 090°46'3 5.7
2018-Feb-03 20:00N 29°34' W 090°43'3 2.1
2018-Feb-03 18:29N 29°37' W 090°42'0 0.9
2018-Feb-03 18:01N 29°37' W 090°41'3 6.6
2018-Feb-03 17:30N 29°35' W 090°38'3 5.8
2018-Feb-03 17:00N 29°34' W 090°35'  
Track history (hours):
 
Tides and Currents Weather Stations Pressure Air Temp Water Temp Dewpoint Dewpoint Depression Visibility Wind Speed Wind Dir Waves Ship Positions

Callie M. Etheredge

Owner: Genesis Marine, LLC, Houston, TX. More information available from US FCC via Universal Licensing System.

Last reported at 2018-Feb-08 19:30 UTC. Time now 2018-Feb-23 10:43 UTC.
Position N 29°48' W 092°04'.
Warning: this ship's position is 14 days out of date.

Length 24 m; draft 3.3 m.

Type: Ship (hazmat cat B). MMSI: 367705090.

Date/timePositionNaut miles runAvg speedWind from/ knotsBaromVisibWave heightAir tempDewpointWater temp
2018-Feb-08 19:30N 29°48' W 092°04'  
2018-Feb-04 19:29N 29°50' W 092°19'3 5.3
2018-Feb-04 18:59N 29°49' W 092°17'3 6.5
2018-Feb-04 18:29N 29°48' W 092°14'3 5.6
2018-Feb-04 17:59N 29°47' W 092°11'3 6.1
2018-Feb-04 17:29N 29°47' W 092°07'62 3.2
2018-Feb-03 21:56N 29°34' W 090°57'3 6.7
2018-Feb-03 21:29N 29°33' W 090°54'3 7.1
2018-Feb-03 21:00N 29°32' W 090°50'3 7.2
2018-Feb-03 20:31N 29°32' W 090°46'3 5.7
2018-Feb-03 20:00N 29°34' W 090°43'3 2.1
2018-Feb-03 18:29N 29°37' W 090°42'0 0.9
2018-Feb-03 18:01N 29°37' W 090°41'3 6.6
2018-Feb-03 17:30N 29°35' W 090°38'3 5.8
2018-Feb-03 17:00N 29°34' W 090°35'  

Dump ship's entire track history